^^

..:: Storico WU ::..




Lo storico viene creato da WUnderground con i dati che la stazione Meteomincio invia al loro server. L' aggiornamento viene fatto ogni 5 minuti circa, tuttavia possono esserci intervalli pi¨ ampi a causa di errori, interruzioni di servizio o problemi nell' invio tramite FTP.


Storico stazione MeteoMincio
Giorno Sommario per Novembre 11, 2022 Unità:  Inglese    Metrico   Entrambi
Giorno Settimana Mese Anno
  Max: Min: Media:
Temperatura: 61.2 °F 44.2 °F 50.7 °F
Dew Point: 57.2 °F 43.3 °F 49.3 °F
Umidità: 98% 84.4% 95%
Velocità vento: 7.5mph 0mph 3mph
Raffica: 12mph - -
Direzione- - West
Pressione: 30.6 in 30.5 in -
Precipitazioni: 0.02 in    
 
 
Tabulato Dati per Novembre 11, 2022
Ora Temperatura Dew Point Pressione Direzione Velocità vento Raffica Umidità Intensità pioggia (oraria) Info solare Situazione
00:04 48.7 °F 48 °F 30.5 in NW 2.1 mph 3.5 mph 97% 0 in 0 W/m2
00:09 48.7 °F 48 °F 30.5 in NW 2.1 mph 3.5 mph 97% 0 in 0 W/m2
00:14 48.7 °F 48 °F 30.5 in WNW 2.1 mph 3.5 mph 97% 0 in 0 W/m2
00:19 48.7 °F 48 °F 30.5 in WNW 2.2 mph 3.5 mph 97% 0 in 0 W/m2
00:24 48.7 °F 48 °F 30.5 in WNW 1.4 mph 3.5 mph 97% 0 in 0 W/m2
00:29 48.6 °F 47.8 °F 30.5 in WNW 1.1 mph 3 mph 97% 0 in 0 W/m2
00:34 48 °F 47.1 °F 30.5 in WNW 1.5 mph 3.5 mph 96.6% 0 in 0 W/m2
00:39 47.5 °F 46.8 °F 30.5 in West 1.5 mph 3 mph 96.8% 0 in 0 W/m2
00:44 47.3 °F 46.4 °F 30.5 in West 1.4 mph 2.3 mph 96.8% 0 in 0 W/m2
00:49 46.9 °F 46.2 °F 30.5 in West 1.7 mph 3.5 mph 97% 0 in 0 W/m2
00:54 46.9 °F 46.2 °F 30.5 in West 1.6 mph 3.5 mph 97% 0 in 0 W/m2
00:59 47.3 °F 46.6 °F 30.5 in West 0.4 mph 3 mph 97% 0 in 0 W/m2
01:04 47.5 °F 46.8 °F 30.5 in Calm   2 mph 97% 0 in 0 W/m2
01:09 47.5 °F 46.6 °F 30.5 in Calm     97% 0 in 0 W/m2
01:14 47.3 °F 46.4 °F 30.5 in West 0.1 mph 2 mph 97% 0 in 0 W/m2
01:19 46.9 °F 46.2 °F 30.5 in West 1.1 mph 2.3 mph 97% 0 in 0 W/m2
01:24 46.8 °F 45.9 °F 30.5 in West 1.1 mph 2.3 mph 97% 0 in 0 W/m2
01:29 46.8 °F 46 °F 30.5 in WNW 1.2 mph 2.3 mph 97% 0 in 0 W/m2
01:34 47.1 °F 46.2 °F 30.5 in WNW 1.4 mph 3 mph 97% 0 in 0 W/m2
01:39 47.1 °F 46.4 °F 30.5 in West 1.6 mph 3.5 mph 97% 0 in 0 W/m2
01:44 46.2 °F 45.5 °F 30.5 in West 1.4 mph 3 mph 97% 0 in 0 W/m2
01:49 46 °F 45.1 °F 30.5 in West 1.4 mph 2.3 mph 97% 0 in 0 W/m2
01:54 46.2 °F 45.3 °F 30.5 in West 1.1 mph 2.3 mph 97% 0 in 0 W/m2
01:59 46.2 °F 45.3 °F 30.5 in West 0.9 mph 2 mph 97% 0 in 0 W/m2
02:04 46.2 °F 45.5 °F 30.5 in West 1 mph 2.3 mph 97% 0 in 0 W/m2
02:09 46.2 °F 45.5 °F 30.5 in West 1.1 mph 2.3 mph 97% 0 in 0 W/m2
02:14 46.2 °F 45.3 °F 30.5 in West 0.9 mph 2.3 mph 97% 0 in 0 W/m2
02:19 46 °F 45.3 °F 30.5 in West 1.4 mph 2.3 mph 97% 0 in 0 W/m2
02:24 45.9 °F 45.1 °F 30.5 in West 1.2 mph 2.3 mph 97% 0 in 0 W/m2
02:29 45.7 °F 45 °F 30.5 in WNW 1.4 mph 3 mph 97% 0 in 0 W/m2
02:34 45.9 °F 45 °F 30.5 in WNW 1.7 mph 3.5 mph 97% 0 in 0 W/m2
02:39 46.4 °F 45.5 °F 30.5 in WNW 2.1 mph 3.5 mph 97% 0 in 0 W/m2
02:44 46 °F 45.3 °F 30.5 in WNW 1.4 mph 3 mph 97% 0 in 0 W/m2
02:49 45.9 °F 45 °F 30.5 in WNW 2.2 mph 3.5 mph 97% 0 in 0 W/m2
02:54 46.4 °F 45.7 °F 30.5 in WNW 2.2 mph 3.5 mph 97% 0 in 0 W/m2
02:59 46.9 °F 46 °F 30.5 in NW 1.2 mph 3.5 mph 97% 0 in 0 W/m2
03:04 46.9 °F 46 °F 30.5 in NNW 1.3 mph 3.5 mph 97% 0 in 0 W/m2
03:09 46.8 °F 46 °F 30.5 in NNW 1.6 mph 3.5 mph 97% 0 in 0 W/m2
03:14 47.1 °F 46.2 °F 30.5 in NW 1.4 mph 3 mph 97% 0 in 0 W/m2
03:19 47.1 °F 46.4 °F 30.5 in NW 1.3 mph 2.3 mph 97% 0 in 0 W/m2
03:24 46.9 °F 46.2 °F 30.5 in NW 1.3 mph 2.3 mph 97% 0 in 0 W/m2
03:29 47.1 °F 46.2 °F 30.5 in NW 1.5 mph 3.5 mph 97% 0 in 0 W/m2
03:34 47.3 °F 46.4 °F 30.5 in NNW 1.4 mph 3 mph 97% 0 in 0 W/m2
03:39 47.3 °F 46.6 °F 30.5 in NW 1.1 mph 2.3 mph 97% 0 in 0 W/m2
03:44 46.4 °F 45.7 °F 30.5 in WSW 1.7 mph 2.3 mph 97% 0 in 0 W/m2
03:49 46.2 °F 45.3 °F 30.5 in SW 1.9 mph 3.5 mph 97% 0 in 0 W/m2
03:54 46.2 °F 45.3 °F 30.5 in SW 1.5 mph 3 mph 97% 0 in 0 W/m2
03:59 46 °F 45.1 °F 30.5 in SW 1.6 mph 3.5 mph 97% 0.01 in 0 W/m2
04:04 45.7 °F 45 °F 30.5 in SW 1.8 mph 3.5 mph 97% 0.01 in 0 W/m2
04:09 45.7 °F 44.8 °F 30.5 in SW 2.3 mph 3.5 mph 97% 0.01 in 0 W/m2
04:14 45.5 °F 44.6 °F 30.5 in SW 2.4 mph 4 mph 97% 0.01 in 0 W/m2
04:19 45.5 °F 44.8 °F 30.5 in SW 2.1 mph 4 mph 97% 0.01 in 0 W/m2
04:24 45.5 °F 44.6 °F 30.5 in SW 2.4 mph 4 mph 97% 0.01 in 0 W/m2
04:29 45.3 °F 44.6 °F 30.5 in WSW 2.9 mph 5 mph 97% 0.01 in 0 W/m2
04:34 45.1 °F 44.4 °F 30.5 in WSW 3 mph 5 mph 97% 0.01 in 0 W/m2
04:39 45 °F 44.2 °F 30.5 in SW 3 mph 5 mph 97% 0.01 in 0 W/m2
04:44 44.8 °F 44.1 °F 30.5 in SW 2.1 mph 5 mph 97% 0.01 in 0 W/m2
04:49 44.8 °F 43.9 °F 30.5 in SW 2.5 mph 4 mph 97% 0.01 in 0 W/m2
04:54 45 °F 44.2 °F 30.5 in SW 3.1 mph 4 mph 97% 0.01 in 0 W/m2
04:59 45.3 °F 44.4 °F 30.5 in SW 3.2 mph 5 mph 97% 0.01 in 0 W/m2
05:04 45.3 °F 44.4 °F 30.5 in WSW 3 mph 5 mph 97% 0.01 in 0 W/m2
05:09 45.1 °F 44.4 °F 30.5 in WSW 2.6 mph 4 mph 97% 0.01 in 0 W/m2
05:14 45.1 °F 44.2 °F 30.5 in WSW 3.3 mph 5 mph 97% 0.01 in 0 W/m2
05:19 45.1 °F 44.4 °F 30.5 in WSW 3.9 mph 6 mph 97% 0 in 0 W/m2
05:24 45.1 °F 44.4 °F 30.5 in WSW 4.3 mph 6 mph 97% 0 in 0 W/m2
05:29 45 °F 44.2 °F 30.5 in WSW 4.3 mph 6 mph 97% 0 in 0 W/m2
05:34 44.8 °F 44.1 °F 30.5 in WSW 4 mph 6 mph 97% 0 in 0 W/m2
05:39 44.8 °F 44.1 °F 30.5 in WSW 3.7 mph 6 mph 97% 0 in 0 W/m2
05:44 44.6 °F 43.9 °F 30.5 in WSW 3.2 mph 6 mph 97% 0 in 0 W/m2
05:49 44.6 °F 43.9 °F 30.5 in WSW 3.2 mph 5 mph 97% 0 in 0 W/m2
05:54 44.6 °F 43.7 °F 30.5 in WSW 2.9 mph 4 mph 97% 0 in 0 W/m2
05:59 44.6 °F 43.7 °F 30.5 in WSW 3.4 mph 5 mph 97% 0 in 0 W/m2
06:04 44.6 °F 43.9 °F 30.5 in West 3.4 mph 5 mph 97% 0 in 0 W/m2
06:09 44.8 °F 43.9 °F 30.5 in West 3.4 mph 5 mph 97% 0 in 0 W/m2
06:14 44.8 °F 43.9 °F 30.5 in West 2.5 mph 5 mph 97% 0 in 0 W/m2
06:19 44.6 °F 43.9 °F 30.5 in West 2.2 mph 3.5 mph 97% 0 in 0 W/m2
06:24 44.4 °F 43.7 °F 30.5 in West 1.8 mph 3.5 mph 97% 0 in 0 W/m2
06:29 44.4 °F 43.7 °F 30.5 in WSW 2.7 mph 4 mph 97% 0 in 0 W/m2
06:34 44.4 °F 43.7 °F 30.5 in WSW 3.1 mph 5 mph 97% 0 in 0 W/m2
06:39 44.4 °F 43.7 °F 30.5 in WSW 3.9 mph 5 mph 97% 0 in 0 W/m2
06:44 44.6 °F 43.7 °F 30.5 in WSW 3.7 mph 5 mph 97% 0 in 0 W/m2
06:49 44.4 °F 43.7 °F 30.5 in WSW 3.5 mph 6 mph 97% 0 in 0 W/m2
06:54 44.2 °F 43.5 °F 30.5 in West 4.3 mph 6 mph 97% 0 in 0 W/m2
06:59 44.2 °F 43.3 °F 30.5 in West 3.9 mph 5 mph 97% 0 in 0 W/m2
07:04 44.2 °F 43.5 °F 30.5 in West 3.3 mph 5 mph 97% 0 in 0 W/m2
07:09 44.2 °F 43.5 °F 30.5 in WSW 2.9 mph 5 mph 97% 0 in 0 W/m2
07:14 44.2 °F 43.3 °F 30.5 in West 2.9 mph 4 mph 97% 0 in 5 W/m2
07:19 44.2 °F 43.5 °F 30.5 in West 2.7 mph 4 mph 97% 0 in 9 W/m2
07:24 44.6 °F 43.9 °F 30.5 in West 3.4 mph 5 mph 97% 0 in 11 W/m2
07:29 45.1 °F 44.4 °F 30.5 in West 3.9 mph 5 mph 97.3% 0 in 11 W/m2
07:34 45.3 °F 44.8 °F 30.5 in West 3.5 mph 5 mph 97.5% 0 in 16 W/m2
07:39 45.3 °F 44.6 °F 30.5 in West 3.3 mph 5 mph 97.2% 0 in 18 W/m2
07:44 45.3 °F 44.8 °F 30.5 in West 3.4 mph 5 mph 97.7% 0 in 18 W/m2
07:49 45.1 °F 44.4 °F 30.5 in WSW 2.5 mph 5 mph 97.2% 0 in 33 W/m2
07:54 45 °F 44.1 °F 30.5 in WSW 3 mph 5 mph 97% 0 in 46 W/m2
07:59 45 °F 44.2 °F 30.5 in WSW 3 mph 4 mph 97% 0 in 51 W/m2
08:04 45.1 °F 44.4 °F 30.5 in WSW 3.1 mph 5 mph 97% 0 in 58 W/m2
08:09 45.3 °F 44.4 °F 30.5 in WSW 3.4 mph 5 mph 97% 0 in 69 W/m2
08:14 45.3 °F 44.4 °F 30.5 in WSW 4 mph 7 mph 97% 0 in 72 W/m2
08:19 45.5 °F 44.8 °F 30.5 in WSW 5 mph 8.1 mph 97.8% 0 in 72 W/m2
08:24 45.7 °F 45 °F 30.5 in WSW 4.8 mph 8.1 mph 97.8% 0 in 81 W/m2
08:29 45.9 °F 45.1 °F 30.5 in WSW 4.3 mph 8 mph 97% 0 in 79 W/m2
08:34 46.2 °F 45.7 °F 30.5 in WSW 5.2 mph 8.1 mph 97.8% 0 in 88 W/m2
08:39 46.4 °F 45.9 °F 30.5 in WSW 3.8 mph 8 mph 98% 0 in 88 W/m2
08:44 46.8 °F 46.2 °F 30.5 in WSW 3.6 mph 6 mph 98% 0 in 105 W/m2
08:49 47.1 °F 46.6 °F 30.5 in WSW 3.3 mph 6 mph 98% 0 in 102 W/m2
08:54 47.5 °F 46.9 °F 30.5 in WSW 3.1 mph 6 mph 98% 0 in 109 W/m2
08:59 47.8 °F 47.5 °F 30.5 in WSW 3.5 mph 6 mph 98% 0 in 149 W/m2
09:04 48.2 °F 47.8 °F 30.5 in West 5 mph 8.1 mph 98% 0 in 146 W/m2
09:09 48.4 °F 48 °F 30.5 in West 4.8 mph 8.1 mph 98% 0 in 144 W/m2
09:14 48.7 °F 48.2 °F 30.5 in West 5.7 mph 8.1 mph 98% 0 in 197 W/m2
09:19 49.1 °F 48.6 °F 30.5 in West 5.6 mph 8.1 mph 98% 0 in 264 W/m2
09:24 49.6 °F 49.1 °F 30.5 in WSW 4.3 mph 8.1 mph 98% 0 in 287 W/m2
09:29 49.8 °F 49.5 °F 30.5 in WSW 4.1 mph 8 mph 98% 0 in 267 W/m2
09:34 50 °F 49.6 °F 30.5 in WSW 5.5 mph 9.2 mph 98% 0 in 265 W/m2
09:39 50.2 °F 49.6 °F 30.5 in West 6.5 mph 9.2 mph 98% 0 in 313 W/m2
09:44 50.7 °F 50.2 °F 30.5 in West 5.7 mph 9.2 mph 98% 0 in 313 W/m2
09:49 50.7 °F 50.4 °F 30.5 in West 5.8 mph 8.1 mph 98% 0 in 276 W/m2
09:54 50.9 °F 50.4 °F 30.5 in West 6 mph 8.1 mph 98% 0 in 185 W/m2
09:59 50.7 °F 50.2 °F 30.5 in WSW 5.9 mph 8.1 mph 98% 0 in 142 W/m2
10:04 50.9 °F 50.5 °F 30.5 in WSW 6.1 mph 10.4 mph 98% 0 in 188 W/m2
10:09 51.1 °F 50.7 °F 30.5 in West 6 mph 10 mph 98% 0 in 151 W/m2
10:14 51.3 °F 50.7 °F 30.5 in West 6.3 mph 9.2 mph 98% 0 in 246 W/m2
10:19 51.8 °F 51.3 °F 30.5 in West 5.5 mph 9.2 mph 98% 0 in 246 W/m2
10:24 52 °F 51.6 °F 30.5 in WSW 5.7 mph 10 mph 98% 0 in 223 W/m2
10:29 52.2 °F 51.6 °F 30.6 in West 6.5 mph 10.4 mph 98% 0 in 197 W/m2
10:34 52 °F 51.4 °F 30.6 in West 6.8 mph 10.4 mph 98% 0 in 158 W/m2
10:39 52.2 °F 51.6 °F 30.6 in WSW 6.1 mph 10 mph 98% 0 in 172 W/m2
10:44 52.3 °F 51.8 °F 30.6 in WSW 6.1 mph 10.4 mph 98% 0 in 195 W/m2
10:49 52.5 °F 52 °F 30.6 in WSW 5.8 mph 10 mph 98% 0 in 195 W/m2
10:54 52.7 °F 52.3 °F 30.6 in WSW 5.7 mph 9.2 mph 98% 0 in 216 W/m2
10:59 53.2 °F 52.7 °F 30.6 in West 5.6 mph 10.4 mph 98% 0 in 179 W/m2
11:04 53.1 °F 52.7 °F 30.6 in WSW 6.6 mph 10 mph 98% 0 in 134 W/m2
11:09 53.4 °F 52.9 °F 30.6 in WSW 6.4 mph 9.2 mph 98% 0 in 332 W/m2
11:14 54.1 °F 53.4 °F 30.6 in WSW 6.2 mph 11.5 mph 98% 0 in 429 W/m2
11:19 54.1 °F 53.6 °F 30.6 in WSW 6.3 mph 12 mph 98% 0 in 279 W/m2
11:24 54.3 °F 53.6 °F 30.6 in WSW 6.2 mph 11.5 mph 97.7% 0 in 302 W/m2
11:29 54.3 °F 53.6 °F 30.6 in WSW 7.5 mph 12 mph 97% 0 in 401 W/m2
11:34 54.5 °F 53.8 °F 30.6 in WSW 6.3 mph 12 mph 97% 0 in 403 W/m2
11:39 54.9 °F 54.1 °F 30.6 in WSW 6.5 mph 11.5 mph 97% 0 in 364 W/m2
11:44 54.7 °F 54 °F 30.5 in WSW 6.1 mph 12 mph 97% 0 in 158 W/m2
11:49 54.9 °F 54.1 °F 30.5 in WSW 5.7 mph 10.4 mph 97% 0 in 350 W/m2
11:54 55.2 °F 54.3 °F 30.5 in WSW 5.2 mph 10 mph 96.6% 0 in 371 W/m2
11:59 55.6 °F 54.5 °F 30.5 in WSW 5.7 mph 9.2 mph 96.4% 0 in 371 W/m2
12:04 55.9 °F 54.7 °F 30.5 in West 6.9 mph 10.4 mph 96% 0 in 302 W/m2
12:09 56.1 °F 55 °F 30.5 in West 5.8 mph 10 mph 95.9% 0 in 329 W/m2
12:14 56.8 °F 55.4 °F 30.5 in West 6.6 mph 10.4 mph 95.2% 0 in 482 W/m2
12:19 57.4 °F 55.9 °F 30.5 in West 6.3 mph 10.4 mph 94.9% 0 in 506 W/m2
12:24 58.3 °F 56.5 °F 30.5 in West 5.8 mph 10 mph 93.6% 0 in 496 W/m2
12:29 58.8 °F 56.5 °F 30.5 in West 5.9 mph 9.2 mph 92.2% 0 in 490 W/m2
12:34 59 °F 56.3 °F 30.5 in WSW 5.8 mph 9.2 mph 90.8% 0 in 454 W/m2
12:39 59.2 °F 56.7 °F 30.5 in WSW 5.5 mph 10.4 mph 90.8% 0 in 418 W/m2
12:44 59.9 °F 57.2 °F 30.5 in WSW 4.3 mph 10 mph 90.5% 0 in 425 W/m2
12:49 60.1 °F 56.8 °F 30.5 in West 5.9 mph 9.2 mph 89.1% 0 in 399 W/m2
12:54 59.7 °F 56.1 °F 30.5 in WSW 5.8 mph 9.2 mph 87.7% 0 in 425 W/m2
12:59 59.7 °F 56.1 °F 30.5 in West 6.1 mph 10.4 mph 88% 0 in 425 W/m2
13:04 59.7 °F 56.1 °F 30.5 in WSW 6.8 mph 10 mph 88% 0 in 441 W/m2
13:09 59.9 °F 56.3 °F 30.5 in West 5.9 mph 9.2 mph 88% 0 in 450 W/m2
13:14 60.4 °F 56.8 °F 30.5 in WSW 5.5 mph 10.4 mph 88% 0 in 390 W/m2
13:19 60.6 °F 56.8 °F 30.5 in West 3.7 mph 10 mph 87.8% 0 in 341 W/m2
13:24 60.6 °F 56.5 °F 30.5 in West 5.3 mph 8.1 mph 86.2% 0 in 304 W/m2
13:29 60.4 °F 56.3 °F 30.5 in WSW 5.3 mph 8.1 mph 86.6% 0 in 257 W/m2
13:34 60.3 °F 56.3 °F 30.5 in WSW 5.4 mph 8.1 mph 86.6% 0 in 237 W/m2
13:39 60.3 °F 55.9 °F 30.5 in WSW 5.3 mph 8 mph 86% 0 in 204 W/m2
13:44 60.3 °F 56.1 °F 30.5 in West 5 mph 9.2 mph 86% 0 in 199 W/m2
13:49 60.3 °F 56.1 °F 30.5 in WSW 5.8 mph 9.2 mph 86% 0 in 230 W/m2
13:54 60.4 °F 56.1 °F 30.5 in WSW 5.4 mph 9 mph 85.9% 0 in 230 W/m2
13:59 60.3 °F 55.8 °F 30.5 in WSW 5.5 mph 9.2 mph 85% 0 in 267 W/m2
14:04 60.6 °F 56.1 °F 30.5 in West 4.4 mph 9 mph 85.4% 0 in 258 W/m2
14:09 60.8 °F 56.3 °F 30.5 in West 4.5 mph 8.1 mph 85% 0 in 271 W/m2
14:14 61.2 °F 56.5 °F 30.5 in West 4 mph 8.1 mph 84.6% 0 in 264 W/m2
14:19 61.2 °F 56.5 °F 30.5 in West 5.1 mph 8.1 mph 84.6% 0 in 276 W/m2
14:24 61.2 °F 56.5 °F 30.5 in WSW 5.3 mph 9.2 mph 84.4% 0 in 283 W/m2
14:29 61 °F 56.5 °F 30.5 in West 5 mph 9 mph 85% 0 in 260 W/m2
14:34 61 °F 56.5 °F 30.5 in West 4.7 mph 8.1 mph 85.6% 0 in 287 W/m2
14:39 61 °F 56.5 °F 30.5 in WSW 4.8 mph 8.1 mph 85% 0 in 285 W/m2
14:44 61 °F 56.5 °F 30.5 in WSW 4.2 mph 8 mph 85% 0 in 258 W/m2
14:49 61 °F 56.5 °F 30.5 in West 4.5 mph 7 mph 85% 0 in 211 W/m2
14:54 60.8 °F 56.3 °F 30.5 in WNW 4.2 mph 7 mph 85% 0 in 183 W/m2
14:59 60.4 °F 56.1 °F 30.5 in West 4 mph 7 mph 85.6% 0 in 125 W/m2
15:04 60.1 °F 55.9 °F 30.5 in WNW 3.7 mph 7 mph 86% 0 in 93 W/m2
15:09 60.1 °F 56.1 °F 30.5 in WNW 4.3 mph 8.1 mph 86.8% 0 in 91 W/m2
15:14 59.9 °F 55.9 °F 30.5 in WNW 3.9 mph 8 mph 87% 0 in 95 W/m2
15:19 59.7 °F 55.9 °F 30.5 in West 3.2 mph 5 mph 87.6% 0 in 93 W/m2
15:24 59.7 °F 56.1 °F 30.5 in West 4 mph 6 mph 88% 0 in 90 W/m2
15:29 59.5 °F 56.3 °F 30.5 in West 3.9 mph 6 mph 89% 0 in 83 W/m2
15:34 59.2 °F 56.1 °F 30.5 in West 3.7 mph 6 mph 89% 0 in 76 W/m2
15:39 59.2 °F 55.9 °F 30.5 in West 3.2 mph 6 mph 89% 0 in 72 W/m2
15:44 59 °F 55.8 °F 30.5 in WNW 3.5 mph 6 mph 89% 0 in 65 W/m2
15:49 58.8 °F 55.6 °F 30.5 in WNW 3.2 mph 6 mph 89% 0 in 62 W/m2
15:54 58.6 °F 55.4 °F 30.5 in WNW 3.9 mph 6 mph 89% 0 in 56 W/m2
15:59 58.5 °F 55.4 °F 30.5 in WNW 4.2 mph 6 mph 89% 0 in 53 W/m2
16:04 58.3 °F 55.2 °F 30.5 in WNW 3.5 mph 6 mph 89% 0 in 46 W/m2
16:09 58.3 °F 55 °F 30.5 in West 2.5 mph 5 mph 89% 0 in 40 W/m2
16:14 57.9 °F 54.9 °F 30.5 in West 2.1 mph 5 mph 89% 0 in 33 W/m2
16:19 57.7 °F 54.7 °F 30.5 in West 2.5 mph 4 mph 89.5% 0 in 28 W/m2
16:24 57.4 °F 54.5 °F 30.5 in West 1.9 mph 4 mph 90% 0 in 23 W/m2
16:29 57.2 °F 54.3 °F 30.5 in West 1.2 mph 3 mph 90% 0 in 19 W/m2
16:34 57 °F 54.3 °F 30.5 in West 1.6 mph 3.5 mph 90.7% 0 in 14 W/m2
16:39 56.7 °F 54.1 °F 30.5 in West 1.2 mph 3 mph 91% 0 in 11 W/m2
16:44 56.5 °F 54 °F 30.5 in West 1.4 mph 3 mph 91% 0 in 7 W/m2
16:49 56.3 °F 53.8 °F 30.5 in West 1.5 mph 3.5 mph 91.3% 0 in 0 W/m2
16:54 56.1 °F 54 °F 30.5 in WNW 2.2 mph 4 mph 92% 0 in 0 W/m2
16:59 56.1 °F 53.8 °F 30.5 in WNW 2.7 mph 4 mph 92% 0 in 0 W/m2
17:04 55.9 °F 53.8 °F 30.5 in WNW 2.2 mph 4 mph 92% 0 in 0 W/m2
17:09 55.9 °F 53.6 °F 30.5 in WNW 2.5 mph 4 mph 92% 0 in 0 W/m2
17:14 55.8 °F 53.4 °F 30.5 in WNW 2.5 mph 4 mph 92% 0 in 0 W/m2
17:19 55.8 °F 53.4 °F 30.5 in WNW 2.5 mph 4 mph 92% 0 in 0 W/m2
17:24 55.4 °F 53.1 °F 30.5 in WNW 2 mph 4 mph 92% 0 in 0 W/m2
17:29 55.2 °F 53.1 °F 30.5 in WNW 2.7 mph 4 mph 92.3% 0 in 0 W/m2
17:34 55 °F 53.1 °F 30.5 in WNW 2.5 mph 4 mph 93% 0 in 0 W/m2
17:39 54.9 °F 52.9 °F 30.5 in WNW 2.7 mph 4 mph 93% 0 in 0 W/m2
17:44 54.7 °F 52.7 °F 30.5 in WNW 2.4 mph 4 mph 93% 0 in 0 W/m2
17:49 54.5 °F 52.5 °F 30.5 in WNW 2.5 mph 4 mph 93% 0 in 0 W/m2
17:54 54.3 °F 52.3 °F 30.5 in WNW 2.3 mph 4 mph 93% 0 in 0 W/m2
17:59 54.1 °F 52.2 °F 30.5 in WNW 2.1 mph 4 mph 93% 0 in 0 W/m2
18:04 54 °F 52 °F 30.5 in WNW 2 mph 3.5 mph 93.1% 0 in 0 W/m2
18:09 54 °F 52.3 °F 30.5 in WNW 1.4 mph 3.5 mph 94% 0 in 0 W/m2
18:14 53.8 °F 52 °F 30.5 in WNW 1.2 mph 2.3 mph 93.5% 0 in 0 W/m2
18:19 53.6 °F 51.8 °F 30.5 in WNW 0.9 mph 2.3 mph 94% 0 in 0 W/m2
18:24 53.2 °F 51.6 °F 30.5 in WNW 0.1 mph 2 mph 94% 0 in 0 W/m2
18:29 53.2 °F 51.4 °F 30.5 in Calm     94% 0 in 0 W/m2
18:34 53.1 °F 51.4 °F 30.5 in Calm     94% 0 in 0 W/m2
18:39 52.9 °F 51.1 °F 30.5 in Calm     94% 0 in 0 W/m2
18:44 52.5 °F 50.9 °F 30.5 in Calm     94% 0 in 0 W/m2
18:49 52.5 °F 50.9 °F 30.5 in Calm     94% 0 in 0 W/m2
18:54 52.5 °F 50.9 °F 30.5 in Calm     94.4% 0 in 0 W/m2
18:59 52.5 °F 51.1 °F 30.5 in Calm     95% 0 in 0 W/m2
19:04 52.3 °F 50.9 °F 30.5 in Calm     95% 0 in 0 W/m2
19:09 52.2 °F 50.7 °F 30.5 in Calm     95% 0 in 0 W/m2
19:14 51.8 °F 50.4 °F 30.5 in WSW 0.7 mph 3.5 mph 95% 0 in 0 W/m2
19:19 51.6 °F 50.2 °F 30.5 in WSW 2.5 mph 4 mph 95% 0 in 0 W/m2
19:24 51.4 °F 50.2 °F 30.5 in WSW 2.9 mph 4 mph 95% 0 in 0 W/m2
19:29 51.6 °F 50.2 °F 30.5 in West 2.4 mph 4 mph 95% 0 in 0 W/m2
19:34 51.6 °F 50.2 °F 30.5 in West 2.7 mph 4 mph 95% 0 in 0 W/m2
19:39 51.4 °F 50 °F 30.5 in West 2.7 mph 4 mph 95% 0 in 0 W/m2
19:44 51.1 °F 49.6 °F 30.5 in WSW 2.9 mph 4 mph 95% 0 in 0 W/m2
19:49 50.9 °F 49.5 °F 30.5 in WSW 2.6 mph 4 mph 95% 0 in 0 W/m2
19:54 50.5 °F 49.3 °F 30.5 in WSW 2.1 mph 4 mph 95% 0 in 0 W/m2
19:59 50.5 °F 49.1 °F 30.5 in WSW 2.1 mph 3.5 mph 95% 0 in 0 W/m2
20:04 50.2 °F 48.7 °F 30.5 in WSW 2.1 mph 3.5 mph 95% 0 in 0 W/m2
20:09 50.2 °F 49.1 °F 30.5 in WSW 2.2 mph 3.5 mph 95.9% 0 in 0 W/m2
20:14 50 °F 48.7 °F 30.5 in WSW 2.3 mph 3.5 mph 95.4% 0 in 0 W/m2
20:19 50 °F 48.7 °F 30.5 in WSW 2.3 mph 3.5 mph 95.7% 0 in 0 W/m2
20:24 49.8 °F 48.7 °F 30.5 in West 2.2 mph 4 mph 96% 0 in 0 W/m2
20:29 49.6 °F 48.6 °F 30.5 in WSW 2.2 mph 4 mph 96% 0 in 0 W/m2
20:34 49.5 °F 48.4 °F 30.5 in West 2.2 mph 3.5 mph 96% 0 in 0 W/m2
20:39 49.5 °F 48.2 °F 30.5 in WSW 1.8 mph 3.5 mph 96% 0 in 0 W/m2
20:44 49.5 °F 48.4 °F 30.5 in WSW 1.3 mph 3 mph 96% 0 in 0 W/m2
20:49 49.3 °F 48.2 °F 30.5 in West 1 mph 2.3 mph 96% 0 in 0 W/m2
20:54 49.1 °F 48 °F 30.5 in West 0.2 mph 2 mph 96% 0 in 0 W/m2
20:59 48.9 °F 47.8 °F 30.5 in West 0.7 mph 2.3 mph 96% 0 in 0 W/m2
21:04 48.7 °F 47.7 °F 30.5 in WNW 1.1 mph 2.3 mph 96% 0 in 0 W/m2
21:09 48.9 °F 47.8 °F 30.5 in WNW 1.4 mph 3.5 mph 96% 0 in 0 W/m2
21:14 48.9 °F 47.8 °F 30.5 in WNW 0.6 mph 3 mph 96% 0 in 0 W/m2
21:19 49.1 °F 48 °F 30.5 in WNW 0.4 mph 2 mph 96% 0 in 0 W/m2
21:24 48.9 °F 47.8 °F 30.5 in WNW 0.5 mph 2.3 mph 96% 0 in 0 W/m2
21:29 48.6 °F 47.5 °F 30.5 in WNW 0.9 mph 2.3 mph 96% 0 in 0 W/m2
21:34 48.4 °F 47.1 °F 30.5 in West 1.4 mph 2.3 mph 96% 0 in 0 W/m2
21:39 47.8 °F 46.8 °F 30.5 in West 1.8 mph 3.5 mph 96% 0 in 0 W/m2
21:44 47.3 °F 46.2 °F 30.5 in West 2.2 mph 3.5 mph 96% 0 in 0 W/m2
21:49 47.5 °F 46.4 °F 30.5 in WNW 1.6 mph 3.5 mph 96% 0 in 0 W/m2
21:54 47.7 °F 46.6 °F 30.5 in West 1.4 mph 3 mph 96% 0 in 0 W/m2
21:59 47.3 °F 46.2 °F 30.5 in West 1.9 mph 3.5 mph 96% 0 in 0 W/m2
22:04 47.5 °F 46.4 °F 30.5 in WNW 1.4 mph 3.5 mph 96.2% 0 in 0 W/m2
22:09 48 °F 46.9 °F 30.5 in WNW 1.9 mph 3.5 mph 96.4% 0 in 0 W/m2
22:14 48.2 °F 47.5 °F 30.5 in WNW 2.4 mph 3.5 mph 97% 0 in 0 W/m2
22:19 48.4 °F 47.5 °F 30.5 in WNW 2.5 mph 4 mph 97% 0 in 0 W/m2
22:24 48.4 °F 47.7 °F 30.5 in WNW 3.2 mph 4 mph 97% 0 in 0 W/m2
22:29 48.6 °F 47.8 °F 30.5 in WNW 2.7 mph 4 mph 97% 0 in 0 W/m2
22:34 48.7 °F 47.8 °F 30.5 in WNW 2.1 mph 4 mph 97% 0 in 0 W/m2
22:39 48.4 °F 47.5 °F 30.5 in West 2.3 mph 5 mph 96.7% 0 in 0 W/m2
22:44 47.8 °F 46.8 °F 30.5 in West 2.8 mph 5 mph 96.4% 0 in 0 W/m2
22:49 47.3 °F 46.4 °F 30.5 in West 2.7 mph 5 mph 96.4% 0 in 0 W/m2
22:54 47.3 °F 46.2 °F 30.5 in West 3.4 mph 4 mph 96.2% 0 in 0 W/m2
22:59 47.5 °F 46.4 °F 30.5 in West 2.9 mph 4 mph 96.4% 0 in 0 W/m2
23:04 47.8 °F 47.1 °F 30.5 in West 1.8 mph 4 mph 97% 0.01 in 0 W/m2
23:09 47.7 °F 46.8 °F 30.5 in WSW 2.2 mph 3.5 mph 97% 0.01 in 0 W/m2
23:14 47.3 °F 46.2 °F 30.5 in WSW 2.8 mph 4 mph 96.5% 0.01 in 0 W/m2
23:19 47.1 °F 46.2 °F 30.5 in WSW 2.5 mph 4 mph 96.8% 0.01 in 0 W/m2
23:24 46.9 °F 46.2 °F 30.5 in SW 1.4 mph 3.5 mph 97% 0.01 in 0 W/m2
23:29 46.9 °F 46.2 °F 30.5 in SW 1.1 mph 2.3 mph 97% 0.01 in 0 W/m2
23:34 46.6 °F 45.7 °F 30.5 in SW 1.5 mph 2.3 mph 97% 0.01 in 0 W/m2
23:39 46.4 °F 45.5 °F 30.5 in WSW 1.5 mph 2.3 mph 97% 0.01 in 0 W/m2
23:44 46.2 °F 45.5 °F 30.5 in WSW 1.2 mph 3 mph 97% 0.01 in 0 W/m2
23:49 46.2 °F 45.5 °F 30.5 in SW 2.2 mph 4 mph 97% 0.01 in 0 W/m2
23:54 46.2 °F 45.3 °F 30.5 in SW 2.1 mph 3.5 mph 97% 0.01 in 0 W/m2
23:59 46.2 °F 45.5 °F 30.5 in WSW 2.9 mph 4 mph 97% 0.01 in 0 W/m2
Stazione Meteorologica MeteoMincio Rivalta s/M (MN)
Con i complimenti di Weather Underground - 4 mb


METEO PILLOLE
Maggior quantità di pioggia caduta in 24 ore
Foc-Foc (2290 m) - Isola di Réunion
Tra il 7 e l'8 gennaio 1966 caddero 1825mm di pioggia.

Do NOT follow this link or you will be banned from the site!